sensor_id;sensor_type;location;lat;lon;timestamp;P1;durP1;ratioP1;P2;durP2;ratioP2
23730;SDS011;12046;44.702;10.622;2023-08-06T00:51:52;0.90;;;0.50;;
23730;SDS011;12046;44.702;10.622;2023-08-06T00:54:21;0.38;;;0.30;;
23730;SDS011;12046;44.702;10.622;2023-08-06T01:25:29;0.35;;;0.30;;
23730;SDS011;12046;44.702;10.622;2023-08-06T01:34:59;1.10;;;0.38;;
23730;SDS011;12046;44.702;10.622;2023-08-06T01:37:29;0.90;;;0.50;;
23730;SDS011;12046;44.702;10.622;2023-08-06T01:40:11;0.35;;;0.30;;
23730;SDS011;12046;44.702;10.622;2023-08-06T01:42:42;1.25;;;0.47;;
23730;SDS011;12046;44.702;10.622;2023-08-06T01:45:08;0.68;;;0.45;;
23730;SDS011;12046;44.702;10.622;2023-08-06T01:47:40;1.10;;;0.32;;
23730;SDS011;12046;44.702;10.622;2023-08-06T01:57:04;0.32;;;0.32;;
23730;SDS011;12046;44.702;10.622;2023-08-06T01:59:41;0.50;;;0.38;;
23730;SDS011;12046;44.702;10.622;2023-08-06T02:07:27;1.10;;;0.40;;
23730;SDS011;12046;44.702;10.622;2023-08-06T02:13:00;0.40;;;0.30;;
23730;SDS011;12046;44.702;10.622;2023-08-06T02:28:48;0.82;;;0.38;;
23730;SDS011;12046;44.702;10.622;2023-08-06T02:31:26;0.93;;;0.40;;
23730;SDS011;12046;44.702;10.622;2023-08-06T02:40:07;1.90;;;0.40;;
23730;SDS011;12046;44.702;10.622;2023-08-06T03:09:44;0.52;;;0.50;;
23730;SDS011;12046;44.702;10.622;2023-08-06T03:15:16;1.25;;;0.50;;
23730;SDS011;12046;44.702;10.622;2023-08-06T03:17:42;0.70;;;0.45;;
23730;SDS011;12046;44.702;10.622;2023-08-06T03:20:09;0.57;;;0.43;;
23730;SDS011;12046;44.702;10.622;2023-08-06T03:22:38;0.73;;;0.73;;
23730;SDS011;12046;44.702;10.622;2023-08-06T03:25:07;1.00;;;0.43;;
23730;SDS011;12046;44.702;10.622;2023-08-06T03:27:32;0.68;;;0.50;;
23730;SDS011;12046;44.702;10.622;2023-08-06T03:30:00;0.60;;;0.52;;
23730;SDS011;12046;44.702;10.622;2023-08-06T03:58:34;0.40;;;0.40;;
23730;SDS011;12046;44.702;10.622;2023-08-06T06:16:13;1.60;;;0.40;;
23730;SDS011;12046;44.702;10.622;2023-08-06T06:18:42;1.05;;;0.40;;
23730;SDS011;12046;44.702;10.622;2023-08-06T06:53:14;0.95;;;0.60;;
23730;SDS011;12046;44.702;10.622;2023-08-06T07:09:27;1.27;;;0.77;;
23730;SDS011;12046;44.702;10.622;2023-08-06T07:14:59;1.50;;;0.90;;
23730;SDS011;12046;44.702;10.622;2023-08-06T07:17:30;5.30;;;2.45;;
23730;SDS011;12046;44.702;10.622;2023-08-06T07:19:59;8.68;;;3.30;;
23730;SDS011;12046;44.702;10.622;2023-08-06T07:22:25;8.32;;;3.30;;
23730;SDS011;12046;44.702;10.622;2023-08-06T07:24:51;5.72;;;2.80;;
23730;SDS011;12046;44.702;10.622;2023-08-06T07:27:17;7.60;;;3.13;;
23730;SDS011;12046;44.702;10.622;2023-08-06T07:29:54;5.35;;;2.55;;
23730;SDS011;12046;44.702;10.622;2023-08-06T07:32:20;5.05;;;2.40;;
23730;SDS011;12046;44.702;10.622;2023-08-06T07:34:49;6.05;;;2.70;;
23730;SDS011;12046;44.702;10.622;2023-08-06T07:43:01;5.35;;;2.40;;
23730;SDS011;12046;44.702;10.622;2023-08-06T07:54:43;7.63;;;2.90;;
23730;SDS011;12046;44.702;10.622;2023-08-06T07:57:12;6.18;;;2.30;;
23730;SDS011;12046;44.702;10.622;2023-08-06T07:59:44;4.85;;;2.28;;
23730;SDS011;12046;44.702;10.622;2023-08-06T08:02:13;3.75;;;1.80;;
23730;SDS011;12046;44.702;10.622;2023-08-06T08:04:39;3.55;;;1.80;;
23730;SDS011;12046;44.702;10.622;2023-08-06T08:07:04;5.50;;;1.80;;
23730;SDS011;12046;44.702;10.622;2023-08-06T08:09:34;2.40;;;1.50;;
23730;SDS011;12046;44.702;10.622;2023-08-06T08:15:19;3.17;;;1.40;;
23730;SDS011;12046;44.702;10.622;2023-08-06T08:24:08;1.65;;;1.00;;
23730;SDS011;12046;44.702;10.622;2023-08-06T08:30:21;3.40;;;1.20;;
23730;SDS011;12046;44.702;10.622;2023-08-06T08:32:50;1.35;;;0.82;;
23730;SDS011;12046;44.702;10.622;2023-08-06T08:55:15;2.85;;;1.30;;
23730;SDS011;12046;44.702;10.622;2023-08-06T09:00:18;1.40;;;0.80;;
23730;SDS011;12046;44.702;10.622;2023-08-06T09:15:02;1.25;;;0.82;;
23730;SDS011;12046;44.702;10.622;2023-08-06T09:21:03;2.78;;;0.80;;
23730;SDS011;12046;44.702;10.622;2023-08-06T09:23:29;2.13;;;1.20;;
23730;SDS011;12046;44.702;10.622;2023-08-06T09:26:34;1.40;;;0.95;;
23730;SDS011;12046;44.702;10.622;2023-08-06T09:37:55;1.25;;;0.80;;
23730;SDS011;12046;44.702;10.622;2023-08-06T09:40:34;1.77;;;0.60;;
23730;SDS011;12046;44.702;10.622;2023-08-06T09:43:09;1.13;;;0.80;;
23730;SDS011;12046;44.702;10.622;2023-08-06T09:45:43;2.00;;;0.70;;
23730;SDS011;12046;44.702;10.622;2023-08-06T09:48:09;1.60;;;0.80;;
23730;SDS011;12046;44.702;10.622;2023-08-06T09:50:36;0.80;;;0.63;;
23730;SDS011;12046;44.702;10.622;2023-08-06T09:53:13;1.15;;;0.77;;
23730;SDS011;12046;44.702;10.622;2023-08-06T09:55:59;0.93;;;0.70;;
23730;SDS011;12046;44.702;10.622;2023-08-06T09:58:25;0.70;;;0.57;;
23730;SDS011;12046;44.702;10.622;2023-08-06T10:00:51;1.55;;;0.82;;
23730;SDS011;12046;44.702;10.622;2023-08-06T10:03:18;1.40;;;0.77;;
23730;SDS011;12046;44.702;10.622;2023-08-06T10:06:00;1.50;;;0.60;;
23730;SDS011;12046;44.702;10.622;2023-08-06T10:20:49;1.83;;;0.70;;
23730;SDS011;12046;44.702;10.622;2023-08-06T10:32:11;1.77;;;0.60;;
23730;SDS011;12046;44.702;10.622;2023-08-06T10:34:59;0.68;;;0.60;;
23730;SDS011;12046;44.702;10.622;2023-08-06T10:37:44;0.98;;;0.70;;
23730;SDS011;12046;44.702;10.622;2023-08-06T10:40:29;0.65;;;0.65;;
23730;SDS011;12046;44.702;10.622;2023-08-06T10:53:33;0.90;;;0.65;;
23730;SDS011;12046;44.702;10.622;2023-08-06T11:04:01;0.68;;;0.68;;
23730;SDS011;12046;44.702;10.622;2023-08-06T11:06:28;0.50;;;0.50;;
23730;SDS011;12046;44.702;10.622;2023-08-06T11:08:54;0.57;;;0.57;;
23730;SDS011;12046;44.702;10.622;2023-08-06T11:11:20;3.78;;;1.67;;
23730;SDS011;12046;44.702;10.622;2023-08-06T11:13:51;0.95;;;0.93;;
23730;SDS011;12046;44.702;10.622;2023-08-06T11:16:22;0.77;;;0.77;;
23730;SDS011;12046;44.702;10.622;2023-08-06T11:18:51;0.73;;;0.73;;
23730;SDS011;12046;44.702;10.622;2023-08-06T11:21:24;0.98;;;0.95;;
23730;SDS011;12046;44.702;10.622;2023-08-06T11:23:50;1.33;;;0.90;;
23730;SDS011;12046;44.702;10.622;2023-08-06T11:26:20;0.60;;;0.60;;
23730;SDS011;12046;44.702;10.622;2023-08-06T11:28:48;0.60;;;0.60;;
23730;SDS011;12046;44.702;10.622;2023-08-06T11:31:20;0.60;;;0.60;;
23730;SDS011;12046;44.702;10.622;2023-08-06T11:33:47;0.98;;;0.70;;
23730;SDS011;12046;44.702;10.622;2023-08-06T11:36:17;0.88;;;0.70;;
23730;SDS011;12046;44.702;10.622;2023-08-06T11:39:05;0.70;;;0.70;;
23730;SDS011;12046;44.702;10.622;2023-08-06T11:41:31;1.65;;;0.80;;
23730;SDS011;12046;44.702;10.622;2023-08-06T11:44:04;0.55;;;0.55;;
23730;SDS011;12046;44.702;10.622;2023-08-06T11:46:44;0.90;;;0.70;;
23730;SDS011;12046;44.702;10.622;2023-08-06T11:52:18;0.70;;;0.70;;
23730;SDS011;12046;44.702;10.622;2023-08-06T11:54:45;0.55;;;0.55;;
23730;SDS011;12046;44.702;10.622;2023-08-06T11:57:15;0.60;;;0.60;;
23730;SDS011;12046;44.702;10.622;2023-08-06T11:59:41;1.10;;;0.80;;
23730;SDS011;12046;44.702;10.622;2023-08-06T12:02:08;0.60;;;0.60;;
23730;SDS011;12046;44.702;10.622;2023-08-06T12:08:10;1.23;;;0.70;;
23730;SDS011;12046;44.702;10.622;2023-08-06T12:10:39;0.70;;;0.70;;
23730;SDS011;12046;44.702;10.622;2023-08-06T12:13:05;1.13;;;0.73;;
23730;SDS011;12046;44.702;10.622;2023-08-06T12:15:31;0.70;;;0.70;;
23730;SDS011;12046;44.702;10.622;2023-08-06T12:20:29;0.93;;;0.68;;
23730;SDS011;12046;44.702;10.622;2023-08-06T12:22:54;0.65;;;0.63;;
23730;SDS011;12046;44.702;10.622;2023-08-06T12:25:20;0.55;;;0.55;;
23730;SDS011;12046;44.702;10.622;2023-08-06T12:27:46;1.85;;;0.70;;
23730;SDS011;12046;44.702;10.622;2023-08-06T12:30:12;0.80;;;0.70;;
23730;SDS011;12046;44.702;10.622;2023-08-06T12:32:38;0.60;;;0.60;;
23730;SDS011;12046;44.702;10.622;2023-08-06T12:35:04;0.70;;;0.60;;
23730;SDS011;12046;44.702;10.622;2023-08-06T12:37:32;6.57;;;0.70;;
23730;SDS011;12046;44.702;10.622;2023-08-06T12:39:58;0.70;;;0.63;;
23730;SDS011;12046;44.702;10.622;2023-08-06T12:42:24;0.77;;;0.77;;
23730;SDS011;12046;44.702;10.622;2023-08-06T12:44:53;0.90;;;0.70;;
23730;SDS011;12046;44.702;10.622;2023-08-06T12:47:18;0.80;;;0.80;;
23730;SDS011;12046;44.702;10.622;2023-08-06T12:49:45;0.98;;;0.70;;
23730;SDS011;12046;44.702;10.622;2023-08-06T12:52:10;0.70;;;0.70;;
23730;SDS011;12046;44.702;10.622;2023-08-06T12:54:37;0.77;;;0.77;;
23730;SDS011;12046;44.702;10.622;2023-08-06T12:57:04;0.70;;;0.70;;
23730;SDS011;12046;44.702;10.622;2023-08-06T12:59:30;0.82;;;0.70;;
23730;SDS011;12046;44.702;10.622;2023-08-06T13:01:56;0.65;;;0.65;;
23730;SDS011;12046;44.702;10.622;2023-08-06T13:04:21;0.80;;;0.80;;
23730;SDS011;12046;44.702;10.622;2023-08-06T13:06:50;0.60;;;0.60;;
23730;SDS011;12046;44.702;10.622;2023-08-06T13:09:15;1.00;;;0.68;;
23730;SDS011;12046;44.702;10.622;2023-08-06T13:11:41;0.60;;;0.60;;
23730;SDS011;12046;44.702;10.622;2023-08-06T13:14:10;0.65;;;0.65;;
23730;SDS011;12046;44.702;10.622;2023-08-06T13:16:37;0.65;;;0.65;;
23730;SDS011;12046;44.702;10.622;2023-08-06T13:19:08;1.05;;;0.70;;
23730;SDS011;12046;44.702;10.622;2023-08-06T13:24:07;0.52;;;0.52;;
23730;SDS011;12046;44.702;10.622;2023-08-06T13:26:33;0.70;;;0.70;;
23730;SDS011;12046;44.702;10.622;2023-08-06T13:29:00;0.70;;;0.70;;
23730;SDS011;12046;44.702;10.622;2023-08-06T13:31:27;0.68;;;0.68;;
23730;SDS011;12046;44.702;10.622;2023-08-06T13:33:54;0.77;;;0.77;;
23730;SDS011;12046;44.702;10.622;2023-08-06T13:36:23;0.65;;;0.65;;
23730;SDS011;12046;44.702;10.622;2023-08-06T13:38:50;0.95;;;0.80;;
23730;SDS011;12046;44.702;10.622;2023-08-06T13:41:16;0.63;;;0.63;;
23730;SDS011;12046;44.702;10.622;2023-08-06T13:43:42;0.80;;;0.80;;
23730;SDS011;12046;44.702;10.622;2023-08-06T13:46:09;0.80;;;0.70;;
23730;SDS011;12046;44.702;10.622;2023-08-06T13:48:39;0.60;;;0.60;;
23730;SDS011;12046;44.702;10.622;2023-08-06T13:51:28;0.70;;;0.70;;
23730;SDS011;12046;44.702;10.622;2023-08-06T13:53:53;0.90;;;0.90;;
23730;SDS011;12046;44.702;10.622;2023-08-06T13:56:19;0.75;;;0.75;;
23730;SDS011;12046;44.702;10.622;2023-08-06T14:07:22;0.60;;;0.60;;
23730;SDS011;12046;44.702;10.622;2023-08-06T14:09:51;0.63;;;0.63;;
23730;SDS011;12046;44.702;10.622;2023-08-06T14:15:01;0.75;;;0.70;;
23730;SDS011;12046;44.702;10.622;2023-08-06T14:17:31;1.80;;;0.68;;
23730;SDS011;12046;44.702;10.622;2023-08-06T14:20:01;1.60;;;0.70;;
23730;SDS011;12046;44.702;10.622;2023-08-06T14:22:35;0.90;;;0.90;;
23730;SDS011;12046;44.702;10.622;2023-08-06T14:25:01;0.70;;;0.70;;
23730;SDS011;12046;44.702;10.622;2023-08-06T14:27:33;0.77;;;0.77;;
23730;SDS011;12046;44.702;10.622;2023-08-06T14:32:51;0.70;;;0.70;;
23730;SDS011;12046;44.702;10.622;2023-08-06T14:35:16;0.93;;;0.70;;
23730;SDS011;12046;44.702;10.622;2023-08-06T14:37:51;0.60;;;0.60;;
23730;SDS011;12046;44.702;10.622;2023-08-06T14:40:17;0.73;;;0.73;;
23730;SDS011;12046;44.702;10.622;2023-08-06T14:42:49;1.55;;;0.82;;
23730;SDS011;12046;44.702;10.622;2023-08-06T14:45:20;0.90;;;0.80;;
23730;SDS011;12046;44.702;10.622;2023-08-06T14:47:49;0.60;;;0.60;;
23730;SDS011;12046;44.702;10.622;2023-08-06T14:50:26;2.17;;;0.70;;
23730;SDS011;12046;44.702;10.622;2023-08-06T14:53:01;0.60;;;0.60;;
23730;SDS011;12046;44.702;10.622;2023-08-06T14:55:31;0.80;;;0.80;;
23730;SDS011;12046;44.702;10.622;2023-08-06T15:04:41;0.80;;;0.80;;
23730;SDS011;12046;44.702;10.622;2023-08-06T15:07:07;1.20;;;0.70;;
23730;SDS011;12046;44.702;10.622;2023-08-06T15:09:34;1.95;;;0.82;;
23730;SDS011;12046;44.702;10.622;2023-08-06T15:12:03;0.60;;;0.60;;
23730;SDS011;12046;44.702;10.622;2023-08-06T15:14:32;0.80;;;0.80;;
23730;SDS011;12046;44.702;10.622;2023-08-06T15:16:57;0.90;;;0.90;;
23730;SDS011;12046;44.702;10.622;2023-08-06T15:19:24;0.68;;;0.68;;
23730;SDS011;12046;44.702;10.622;2023-08-06T15:22:05;0.75;;;0.75;;
23730;SDS011;12046;44.702;10.622;2023-08-06T15:24:31;0.70;;;0.70;;
23730;SDS011;12046;44.702;10.622;2023-08-06T15:26:57;0.75;;;0.75;;
23730;SDS011;12046;44.702;10.622;2023-08-06T15:29:28;0.60;;;0.60;;
23730;SDS011;12046;44.702;10.622;2023-08-06T15:32:01;0.80;;;0.80;;
23730;SDS011;12046;44.702;10.622;2023-08-06T15:34:44;0.80;;;0.80;;
23730;SDS011;12046;44.702;10.622;2023-08-06T15:37:13;0.60;;;0.60;;
23730;SDS011;12046;44.702;10.622;2023-08-06T15:39:41;0.60;;;0.60;;
23730;SDS011;12046;44.702;10.622;2023-08-06T15:42:13;2.05;;;0.60;;
23730;SDS011;12046;44.702;10.622;2023-08-06T15:44:47;0.60;;;0.60;;
23730;SDS011;12046;44.702;10.622;2023-08-06T15:47:15;0.50;;;0.50;;
23730;SDS011;12046;44.702;10.622;2023-08-06T15:49:40;0.70;;;0.70;;
23730;SDS011;12046;44.702;10.622;2023-08-06T15:52:11;0.70;;;0.70;;
23730;SDS011;12046;44.702;10.622;2023-08-06T15:54:40;0.70;;;0.60;;
23730;SDS011;12046;44.702;10.622;2023-08-06T15:57:35;0.65;;;0.65;;
23730;SDS011;12046;44.702;10.622;2023-08-06T16:02:43;0.70;;;0.70;;
23730;SDS011;12046;44.702;10.622;2023-08-06T16:08:16;1.38;;;0.80;;
23730;SDS011;12046;44.702;10.622;2023-08-06T16:11:07;0.70;;;0.70;;
23730;SDS011;12046;44.702;10.622;2023-08-06T16:13:33;0.70;;;0.70;;
23730;SDS011;12046;44.702;10.622;2023-08-06T16:15:59;0.70;;;0.70;;
23730;SDS011;12046;44.702;10.622;2023-08-06T16:18:25;1.05;;;0.63;;
23730;SDS011;12046;44.702;10.622;2023-08-06T16:20:51;0.85;;;0.65;;
23730;SDS011;12046;44.702;10.622;2023-08-06T16:23:17;0.70;;;0.70;;
23730;SDS011;12046;44.702;10.622;2023-08-06T16:25:43;0.95;;;0.68;;
23730;SDS011;12046;44.702;10.622;2023-08-06T16:28:12;0.85;;;0.85;;
23730;SDS011;12046;44.702;10.622;2023-08-06T16:30:45;0.70;;;0.70;;
23730;SDS011;12046;44.702;10.622;2023-08-06T16:33:17;1.05;;;0.70;;
23730;SDS011;12046;44.702;10.622;2023-08-06T16:35:42;1.75;;;0.70;;
23730;SDS011;12046;44.702;10.622;2023-08-06T16:38:08;0.60;;;0.60;;
23730;SDS011;12046;44.702;10.622;2023-08-06T16:40:36;0.68;;;0.68;;
23730;SDS011;12046;44.702;10.622;2023-08-06T16:43:02;0.60;;;0.60;;
23730;SDS011;12046;44.702;10.622;2023-08-06T16:45:29;0.60;;;0.60;;
23730;SDS011;12046;44.702;10.622;2023-08-06T16:47:55;0.60;;;0.60;;
23730;SDS011;12046;44.702;10.622;2023-08-06T16:50:21;0.70;;;0.70;;
23730;SDS011;12046;44.702;10.622;2023-08-06T16:52:47;0.82;;;0.60;;
23730;SDS011;12046;44.702;10.622;2023-08-06T16:55:13;0.68;;;0.68;;
23730;SDS011;12046;44.702;10.622;2023-08-06T16:57:40;0.85;;;0.60;;
23730;SDS011;12046;44.702;10.622;2023-08-06T17:00:09;0.50;;;0.50;;
23730;SDS011;12046;44.702;10.622;2023-08-06T17:02:38;1.98;;;0.80;;
23730;SDS011;12046;44.702;10.622;2023-08-06T17:05:07;1.50;;;0.60;;
23730;SDS011;12046;44.702;10.622;2023-08-06T17:07:33;1.65;;;0.70;;
23730;SDS011;12046;44.702;10.622;2023-08-06T17:09:58;0.60;;;0.60;;
23730;SDS011;12046;44.702;10.622;2023-08-06T17:12:24;0.82;;;0.82;;
23730;SDS011;12046;44.702;10.622;2023-08-06T17:14:51;0.80;;;0.80;;
23730;SDS011;12046;44.702;10.622;2023-08-06T17:17:16;0.65;;;0.65;;
23730;SDS011;12046;44.702;10.622;2023-08-06T17:19:42;1.00;;;0.47;;
23730;SDS011;12046;44.702;10.622;2023-08-06T17:22:09;1.35;;;0.60;;
23730;SDS011;12046;44.702;10.622;2023-08-06T17:24:35;0.60;;;0.60;;
23730;SDS011;12046;44.702;10.622;2023-08-06T17:27:01;0.93;;;0.60;;
23730;SDS011;12046;44.702;10.622;2023-08-06T17:29:32;1.58;;;0.68;;
23730;SDS011;12046;44.702;10.622;2023-08-06T17:31:58;0.60;;;0.60;;
23730;SDS011;12046;44.702;10.622;2023-08-06T17:34:24;0.50;;;0.50;;
23730;SDS011;12046;44.702;10.622;2023-08-06T17:36:52;0.60;;;0.60;;
23730;SDS011;12046;44.702;10.622;2023-08-06T17:39:18;0.70;;;0.65;;
23730;SDS011;12046;44.702;10.622;2023-08-06T17:41:44;0.60;;;0.60;;
23730;SDS011;12046;44.702;10.622;2023-08-06T17:44:13;0.80;;;0.80;;
23730;SDS011;12046;44.702;10.622;2023-08-06T17:46:41;0.93;;;0.70;;
23730;SDS011;12046;44.702;10.622;2023-08-06T17:49:10;0.80;;;0.70;;
23730;SDS011;12046;44.702;10.622;2023-08-06T17:51:36;0.70;;;0.60;;
23730;SDS011;12046;44.702;10.622;2023-08-06T17:54:02;0.80;;;0.68;;
23730;SDS011;12046;44.702;10.622;2023-08-06T17:56:27;0.60;;;0.60;;
23730;SDS011;12046;44.702;10.622;2023-08-06T17:58:56;0.75;;;0.75;;
23730;SDS011;12046;44.702;10.622;2023-08-06T18:01:22;0.82;;;0.63;;
23730;SDS011;12046;44.702;10.622;2023-08-06T18:03:48;1.08;;;0.60;;
23730;SDS011;12046;44.702;10.622;2023-08-06T18:06:15;0.60;;;0.60;;
23730;SDS011;12046;44.702;10.622;2023-08-06T18:08:41;0.90;;;0.75;;
23730;SDS011;12046;44.702;10.622;2023-08-06T18:11:07;0.70;;;0.70;;
23730;SDS011;12046;44.702;10.622;2023-08-06T18:13:39;1.02;;;0.93;;
23730;SDS011;12046;44.702;10.622;2023-08-06T18:16:08;0.80;;;0.70;;
23730;SDS011;12046;44.702;10.622;2023-08-06T18:18:34;0.70;;;0.70;;
23730;SDS011;12046;44.702;10.622;2023-08-06T18:20:59;0.65;;;0.60;;
23730;SDS011;12046;44.702;10.622;2023-08-06T18:23:28;0.70;;;0.70;;
23730;SDS011;12046;44.702;10.622;2023-08-06T18:25:54;1.02;;;0.70;;
23730;SDS011;12046;44.702;10.622;2023-08-06T18:28:25;0.70;;;0.70;;
23730;SDS011;12046;44.702;10.622;2023-08-06T18:30:51;0.60;;;0.60;;
23730;SDS011;12046;44.702;10.622;2023-08-06T18:33:17;0.98;;;0.88;;
23730;SDS011;12046;44.702;10.622;2023-08-06T18:35:43;1.20;;;0.68;;
23730;SDS011;12046;44.702;10.622;2023-08-06T18:38:15;0.70;;;0.70;;
23730;SDS011;12046;44.702;10.622;2023-08-06T18:40:44;1.10;;;0.60;;
23730;SDS011;12046;44.702;10.622;2023-08-06T18:43:09;0.80;;;0.68;;
23730;SDS011;12046;44.702;10.622;2023-08-06T18:45:38;1.85;;;0.63;;
23730;SDS011;12046;44.702;10.622;2023-08-06T18:48:07;2.15;;;0.73;;
23730;SDS011;12046;44.702;10.622;2023-08-06T18:50:36;0.63;;;0.63;;
23730;SDS011;12046;44.702;10.622;2023-08-06T18:53:02;0.60;;;0.60;;
23730;SDS011;12046;44.702;10.622;2023-08-06T18:55:34;0.65;;;0.55;;
23730;SDS011;12046;44.702;10.622;2023-08-06T18:58:03;0.63;;;0.60;;
23730;SDS011;12046;44.702;10.622;2023-08-06T19:00:30;0.40;;;0.40;;
23730;SDS011;12046;44.702;10.622;2023-08-06T19:02:59;1.23;;;0.70;;
23730;SDS011;12046;44.702;10.622;2023-08-06T19:05:25;0.68;;;0.55;;
23730;SDS011;12046;44.702;10.622;2023-08-06T19:07:51;0.63;;;0.63;;
23730;SDS011;12046;44.702;10.622;2023-08-06T19:10:17;1.20;;;0.90;;
23730;SDS011;12046;44.702;10.622;2023-08-06T19:12:43;0.63;;;0.63;;
23730;SDS011;12046;44.702;10.622;2023-08-06T19:15:12;1.33;;;0.63;;
23730;SDS011;12046;44.702;10.622;2023-08-06T19:17:37;0.85;;;0.70;;
23730;SDS011;12046;44.702;10.622;2023-08-06T19:20:03;1.05;;;0.75;;
23730;SDS011;12046;44.702;10.622;2023-08-06T19:22:30;1.13;;;0.98;;
23730;SDS011;12046;44.702;10.622;2023-08-06T19:24:55;1.70;;;0.90;;
23730;SDS011;12046;44.702;10.622;2023-08-06T19:27:21;1.08;;;1.00;;
23730;SDS011;12046;44.702;10.622;2023-08-06T19:29:47;0.90;;;0.90;;
23730;SDS011;12046;44.702;10.622;2023-08-06T19:35:32;1.73;;;1.10;;
23730;SDS011;12046;44.702;10.622;2023-08-06T19:44:08;2.42;;;1.30;;
23730;SDS011;12046;44.702;10.622;2023-08-06T19:46:36;1.63;;;1.15;;
23730;SDS011;12046;44.702;10.622;2023-08-06T19:49:02;2.33;;;1.30;;
23730;SDS011;12046;44.702;10.622;2023-08-06T19:51:33;2.13;;;1.30;;
23730;SDS011;12046;44.702;10.622;2023-08-06T19:54:09;2.38;;;1.40;;
23730;SDS011;12046;44.702;10.622;2023-08-06T19:56:38;1.75;;;1.35;;
23730;SDS011;12046;44.702;10.622;2023-08-06T19:59:10;2.65;;;1.30;;
23730;SDS011;12046;44.702;10.622;2023-08-06T20:01:35;3.33;;;1.40;;
23730;SDS011;12046;44.702;10.622;2023-08-06T20:04:04;2.30;;;1.40;;
23730;SDS011;12046;44.702;10.622;2023-08-06T20:06:29;2.60;;;1.60;;
23730;SDS011;12046;44.702;10.622;2023-08-06T20:08:55;2.28;;;1.35;;
23730;SDS011;12046;44.702;10.622;2023-08-06T20:11:24;1.95;;;1.40;;
23730;SDS011;12046;44.702;10.622;2023-08-06T20:13:50;1.83;;;1.40;;
23730;SDS011;12046;44.702;10.622;2023-08-06T20:16:18;2.15;;;1.42;;
23730;SDS011;12046;44.702;10.622;2023-08-06T20:18:44;2.95;;;1.30;;
23730;SDS011;12046;44.702;10.622;2023-08-06T20:21:10;2.60;;;1.25;;
23730;SDS011;12046;44.702;10.622;2023-08-06T20:23:36;1.63;;;1.15;;
23730;SDS011;12046;44.702;10.622;2023-08-06T20:26:04;2.90;;;1.40;;
23730;SDS011;12046;44.702;10.622;2023-08-06T20:28:30;2.53;;;1.40;;
23730;SDS011;12046;44.702;10.622;2023-08-06T20:30:57;3.10;;;1.58;;
23730;SDS011;12046;44.702;10.622;2023-08-06T20:33:23;3.38;;;1.40;;
23730;SDS011;12046;44.702;10.622;2023-08-06T20:35:52;2.00;;;1.30;;
23730;SDS011;12046;44.702;10.622;2023-08-06T20:38:21;2.20;;;1.20;;
23730;SDS011;12046;44.702;10.622;2023-08-06T20:40:54;1.95;;;1.10;;
23730;SDS011;12046;44.702;10.622;2023-08-06T20:43:21;2.75;;;1.00;;
23730;SDS011;12046;44.702;10.622;2023-08-06T20:45:55;1.10;;;0.90;;
23730;SDS011;12046;44.702;10.622;2023-08-06T20:51:06;1.40;;;0.95;;
23730;SDS011;12046;44.702;10.622;2023-08-06T20:53:34;0.70;;;0.70;;
23730;SDS011;12046;44.702;10.622;2023-08-06T20:56:01;1.27;;;0.90;;
23730;SDS011;12046;44.702;10.622;2023-08-06T20:58:51;1.05;;;0.63;;
23730;SDS011;12046;44.702;10.622;2023-08-06T21:01:20;1.55;;;0.82;;
23730;SDS011;12046;44.702;10.622;2023-08-06T21:03:46;0.82;;;0.73;;
23730;SDS011;12046;44.702;10.622;2023-08-06T21:06:11;0.82;;;0.70;;
23730;SDS011;12046;44.702;10.622;2023-08-06T21:08:40;0.80;;;0.70;;
23730;SDS011;12046;44.702;10.622;2023-08-06T21:11:06;1.90;;;0.70;;
23730;SDS011;12046;44.702;10.622;2023-08-06T21:13:36;1.25;;;0.82;;
23730;SDS011;12046;44.702;10.622;2023-08-06T21:16:03;1.67;;;1.00;;
23730;SDS011;12046;44.702;10.622;2023-08-06T21:18:32;1.90;;;0.82;;
23730;SDS011;12046;44.702;10.622;2023-08-06T21:21:02;1.48;;;1.10;;
23730;SDS011;12046;44.702;10.622;2023-08-06T21:23:31;1.10;;;0.90;;
23730;SDS011;12046;44.702;10.622;2023-08-06T21:26:09;1.20;;;0.73;;
23730;SDS011;12046;44.702;10.622;2023-08-06T21:28:35;1.67;;;0.90;;
23730;SDS011;12046;44.702;10.622;2023-08-06T21:31:03;2.38;;;1.00;;
23730;SDS011;12046;44.702;10.622;2023-08-06T21:33:32;1.90;;;1.05;;
23730;SDS011;12046;44.702;10.622;2023-08-06T21:36:01;1.95;;;1.00;;
23730;SDS011;12046;44.702;10.622;2023-08-06T21:38:28;1.60;;;0.82;;
23730;SDS011;12046;44.702;10.622;2023-08-06T21:41:11;1.27;;;0.98;;
23730;SDS011;12046;44.702;10.622;2023-08-06T21:43:43;1.95;;;1.10;;
23730;SDS011;12046;44.702;10.622;2023-08-06T21:46:21;1.45;;;1.10;;
23730;SDS011;12046;44.702;10.622;2023-08-06T21:48:50;0.88;;;0.80;;
23730;SDS011;12046;44.702;10.622;2023-08-06T21:51:19;1.60;;;0.75;;
23730;SDS011;12046;44.702;10.622;2023-08-06T21:53:48;1.25;;;0.90;;
23730;SDS011;12046;44.702;10.622;2023-08-06T21:56:15;1.20;;;0.60;;
23730;SDS011;12046;44.702;10.622;2023-08-06T21:58:41;0.75;;;0.73;;
23730;SDS011;12046;44.702;10.622;2023-08-06T22:01:12;0.77;;;0.70;;
23730;SDS011;12046;44.702;10.622;2023-08-06T22:03:40;0.75;;;0.63;;
23730;SDS011;12046;44.702;10.622;2023-08-06T22:06:10;1.40;;;0.60;;
23730;SDS011;12046;44.702;10.622;2023-08-06T22:08:39;1.13;;;0.65;;
23730;SDS011;12046;44.702;10.622;2023-08-06T22:11:14;1.10;;;0.73;;
23730;SDS011;12046;44.702;10.622;2023-08-06T22:13:42;0.80;;;0.70;;
23730;SDS011;12046;44.702;10.622;2023-08-06T22:16:14;0.80;;;0.77;;
23730;SDS011;12046;44.702;10.622;2023-08-06T22:18:43;0.65;;;0.60;;
23730;SDS011;12046;44.702;10.622;2023-08-06T22:21:09;1.17;;;0.70;;
23730;SDS011;12046;44.702;10.622;2023-08-06T22:23:37;0.88;;;0.60;;
23730;SDS011;12046;44.702;10.622;2023-08-06T22:26:06;1.38;;;0.70;;
23730;SDS011;12046;44.702;10.622;2023-08-06T22:28:31;1.10;;;0.55;;
23730;SDS011;12046;44.702;10.622;2023-08-06T22:30:57;1.60;;;0.80;;
23730;SDS011;12046;44.702;10.622;2023-08-06T22:33:23;3.03;;;0.70;;
23730;SDS011;12046;44.702;10.622;2023-08-06T22:35:52;2.33;;;0.73;;
23730;SDS011;12046;44.702;10.622;2023-08-06T22:38:18;1.52;;;0.73;;
23730;SDS011;12046;44.702;10.622;2023-08-06T22:40:44;1.67;;;0.65;;
23730;SDS011;12046;44.702;10.622;2023-08-06T22:43:10;2.13;;;0.70;;
23730;SDS011;12046;44.702;10.622;2023-08-06T22:45:36;1.83;;;0.70;;
23730;SDS011;12046;44.702;10.622;2023-08-06T22:48:05;1.90;;;0.70;;
23730;SDS011;12046;44.702;10.622;2023-08-06T22:50:30;0.70;;;0.50;;
23730;SDS011;12046;44.702;10.622;2023-08-06T22:52:56;1.65;;;0.80;;
23730;SDS011;12046;44.702;10.622;2023-08-06T22:55:25;2.40;;;1.00;;
23730;SDS011;12046;44.702;10.622;2023-08-06T22:57:53;1.35;;;0.77;;
23730;SDS011;12046;44.702;10.622;2023-08-06T23:00:24;2.60;;;0.68;;
23730;SDS011;12046;44.702;10.622;2023-08-06T23:02:50;1.98;;;0.85;;
23730;SDS011;12046;44.702;10.622;2023-08-06T23:05:16;2.47;;;0.90;;
23730;SDS011;12046;44.702;10.622;2023-08-06T23:07:44;1.75;;;0.90;;
23730;SDS011;12046;44.702;10.622;2023-08-06T23:10:36;2.60;;;0.75;;
23730;SDS011;12046;44.702;10.622;2023-08-06T23:13:04;1.23;;;0.60;;
23730;SDS011;12046;44.702;10.622;2023-08-06T23:15:31;3.08;;;0.80;;
23730;SDS011;12046;44.702;10.622;2023-08-06T23:17:57;1.23;;;0.57;;
23730;SDS011;12046;44.702;10.622;2023-08-06T23:20:23;2.30;;;0.70;;
23730;SDS011;12046;44.702;10.622;2023-08-06T23:22:49;2.22;;;0.90;;
23730;SDS011;12046;44.702;10.622;2023-08-06T23:25:17;2.25;;;0.82;;
23730;SDS011;12046;44.702;10.622;2023-08-06T23:27:46;2.17;;;0.88;;
23730;SDS011;12046;44.702;10.622;2023-08-06T23:30:11;2.17;;;0.88;;